Billinghay, United Kingdom
Current Conditions -  °F | °C
As of 7:50 PM on Wednesday 28 Jan 2015 (Local Time) from EGXC Reporting Station
Scattered Clouds Scattered Clouds  
Wind Chill: -4°   Ceiling: Unl
Heat Index:   Visibility: 6mi
Dew Point: -1°   Wind: 14mph
Humidity: 87%   Direction: 250°WSW
Pressure: 29.41"   Gusts: NA
Location:  53.08°N, 0.28°W
Report Text: EGXC 281950Z 25012KT 9999 FEW040 SCT150 01/M01 Q0996 BLU
Loading
Personal Weather Stations






























Interactive Weather Map New forecast layout! Learn more

10-Day Weather Forecast

Advertisements
Track Severe Weather on mobile